Dundee Airport

About
Name: Dundee Airport
Identifier:  DND/EGPN
Serves:  Dundee
Owner:  Highlands and Islands Airports Limited
Operator:  Dundee Airport Ltd.
Public/Private:  Public
Local Time:  23. Aug 09:43 BST
Description: Dundee Airport is located 3 km from the centre of Dundee, Scotland or, for navigation purposes, 0.5 NM south of the city. It lies on the shore of the Firth of Tay and overlooks the Tay Rail Bridge.
Source: Wikipedia
Location
Runways
Identifier Length (m/ft) Surface
09/27 1,400/4,593 Asphalt
Flights per Day
2 flights
Distance: 550km (342mi)
Punctuality
88% (0 flights per day delayed)
Delay Average: 23 minutes
Current Weather
 18 C (Humidity: 82%)
  15kt (27km/h / 17mph) from 240°
  Few clouds at 2,000 feet (609 meter)
  Scattered clouds at 3,500 feet (1,066 meter)
  9km (6 mi.)
 METAR EGPN 230820Z 24015KT 9999 FEW020 SCT035 18/15 Q1017

Current Flights

Departures
Number Departure To Airline
Arrivals
Number Arrival From Airline
 LM622 10:55  London  Loganair
 LM626 20:45  London  Loganair

Current Delays

Departures
N/A
Arrivals
N/A

Destinations

Top Destinations
Airport Flights
per week
Seats
per week
  London (STN) 21 729 3 104
  Cairns (CNS) 1 84 0 12
  Sumburgh (LSI) 0 23 0 3
  Perth (PSL) 0 - 0 0
  Prestwick (PIK) 0 - 0 0

Airlines & Planes

Top Airlines
Airline Flights
per Day
Seats
per Day
  Loganair 3 107
  PNG Air 0 12
Top Plane Types
Model Flights Seats
Saab 340 3.2/day 107/day 107.66666666666667
ATR 76-600 0.2/day 12/day 12